Main page
METAR-TAF:

METAR-TAF

Airports :

Sumburgh, Shetland, Scotland

Sumburgh Airport

latitude: 59-53N, longitude: 001-18W, elevation: 5 m

Current weather observation

The report was made 20 minutes ago, at 02:20 UTC
Wind 9 kt from the North
Temperature 12°C
Humidity 88%
Pressure 1017 hPa
Visibility 10 km or more

METAR: EGPB 240220Z AUTO 01009KT 9999 OVC009/// 12/10 Q1017

Time: 03:40 (02:40 UTC)

Forecast

The report was made 37 minutes ago, at 02:03 UTC
Forecast valid from 24 at 03 UTC to 24 at 12 UTC
Wind 9 kt from the North
Visibility 10 km or more
Scattered clouds at a height of 1200 ft
Broken clouds at a height of 1500 ft
Temporary
from 24 at 03 UTC to 24 at 12 UTC
Visibility: 7000 m
Broken clouds at a height of 800 ft
Probability 40% :
Temporary
from 24 at 03 UTC to 24 at 09 UTC
Visibility: 4000 m
Scattered clouds at a height of 300 ft
Broken clouds at a height of 500 ft
mist

TAF: EGPB 240203Z 2403/2412 35009KT 9999 SCT012 BKN015 TEMPO 2403/2412 7000 BKN008 PROB40 TEMPO 2403/2409 4000 BR SCT003 BKN005

Weather observations and forecasts of more than 4000 airports (METAR and TAF reports).

The available stations are represented by yellow and red dots on the map.

Hover mouse over dot to see the name of the station.

Then click to see weather observations and forecasts.

To change the map : click on the green buttons with a black cross to zoom in, on the green button with a dash to zoom out, or on the green arrows for adjacent maps.


METAR-TAF: